Time;durP1;ratioP1;P1;durP2;ratioP2;P2;SDS_P1;SDS_P2;PMS_P1;PMS_P2;Temp;Humidity;BMP_temperature;BMP_pressure;BME280_temperature;BME280_humidity;BME280_pressure;Samples;Min_cycle;Max_cycle;Signal;HPM_P1;HPM_P2
2022/01/11 00:01:33;;;;;;;23.00;13.88;;;;;;;-0.90;100.00;96915.66;5051791;28;24427;-76
2022/01/11 00:03:59;;;;;;;15.65;12.93;;;;;;;-0.87;100.00;96920.75;5051930;28;24422;-74
2022/01/11 00:06:33;;;;;;;14.77;13.17;;;;;;;-0.91;100.00;96916.50;5051633;28;24431;-76
2022/01/11 00:09:07;;;;;;;14.90;13.30;;;;;;;-1.00;100.00;96918.22;5051641;28;24875;-76
2022/01/11 00:11:35;;;;;;;18.25;13.65;;;;;;;-0.89;100.00;96909.72;5051611;28;24800;-75
2022/01/11 00:14:02;;;;;;;16.10;12.30;;;;;;;-0.87;100.00;96913.97;5051838;28;24510;-75
2022/01/11 00:16:29;;;;;;;14.45;11.95;;;;;;;-0.62;100.00;96912.28;5051504;28;24641;-74
2022/01/11 00:18:55;;;;;;;17.02;12.48;;;;;;;-0.60;100.00;96913.09;5051778;28;24419;-74
2022/01/11 00:21:22;;;;;;;17.13;12.73;;;;;;;-0.69;100.00;96909.72;5051524;28;24481;-75
2022/01/11 00:26:33;;;;;;;13.45;11.73;;;;;;;-0.57;100.00;96918.19;5051115;28;24423;-75
2022/01/11 00:29:00;;;;;;;15.05;12.35;;;;;;;-0.70;100.00;96908.03;5051496;28;24453;-73
2022/01/11 00:31:26;;;;;;;14.50;11.90;;;;;;;-0.65;100.00;96909.72;5051263;28;24533;-74
2022/01/11 00:33:53;;;;;;;15.20;11.30;;;;;;;-0.57;100.00;96910.56;5051188;28;24967;-75
2022/01/11 00:36:20;;;;;;;12.40;11.10;;;;;;;-0.70;100.00;96915.66;5050761;28;24478;-74
2022/01/11 00:38:46;;;;;;;12.98;10.98;;;;;;;-0.73;100.00;96914.81;5051079;28;24435;-75
2022/01/11 00:41:15;;;;;;;13.90;10.68;;;;;;;-0.90;100.00;96913.97;5051071;28;24963;-74
2022/01/11 00:43:42;;;;;;;17.20;12.47;;;;;;;-0.89;100.00;96920.75;5051245;28;24492;-74
2022/01/11 00:46:10;;;;;;;18.40;15.17;;;;;;;-0.78;100.00;96919.06;5050926;28;24546;-74
2022/01/11 00:48:39;;;;;;;15.55;13.80;;;;;;;-0.67;100.00;96918.19;5050807;28;24481;-74
2022/01/11 00:51:07;;;;;;;16.40;14.02;;;;;;;-0.75;100.00;96911.41;5050808;28;24971;-75
2022/01/11 00:53:33;;;;;;;20.52;14.10;;;;;;;-0.72;100.00;96923.28;5050675;28;24440;-75
2022/01/11 00:56:00;;;;;;;20.05;15.70;;;;;;;-0.39;100.00;96913.94;5050320;28;24940;-75
2022/01/11 00:58:28;;;;;;;16.48;13.43;;;;;;;-0.60;100.00;96923.28;5050892;28;24777;-75
2022/01/11 01:00:55;;;;;;;16.20;13.85;;;;;;;-0.76;100.00;96914.81;5050796;28;24426;-76
2022/01/11 01:03:22;;;;;;;17.00;12.10;;;;;;;-0.86;100.00;96914.81;5050417;28;24447;-76
2022/01/11 01:05:48;;;;;;;15.07;12.52;;;;;;;-0.80;100.00;96917.38;5050191;28;25009;-74
2022/01/11 01:08:15;;;;;;;13.68;11.98;;;;;;;-0.70;100.00;96924.16;5050854;28;24432;-74
2022/01/11 01:10:46;;;;;;;13.15;11.82;;;;;;;-0.78;100.00;96915.66;5050400;28;24994;-74
2022/01/11 01:13:18;;;;;;;13.33;11.90;;;;;;;-0.85;100.00;96924.16;5050638;28;24443;-74
2022/01/11 01:15:48;;;;;;;13.93;12.00;;;;;;;-0.75;100.00;96928.38;5050314;28;24465;-74
2022/01/11 01:18:16;;;;;;;13.43;11.77;;;;;;;-0.81;100.00;96934.31;5050518;28;24415;-74
2022/01/11 01:20:43;;;;;;;12.70;11.38;;;;;;;-0.83;100.00;96930.06;5050296;28;24540;-74
2022/01/11 01:23:09;;;;;;;12.57;11.18;;;;;;;-0.84;100.00;96933.47;5050639;28;24423;-74
2022/01/11 01:25:36;;;;;;;15.15;11.13;;;;;;;-0.95;100.00;96928.38;5049896;28;24995;-74
2022/01/11 01:28:02;;;;;;;15.88;10.45;;;;;;;-0.85;100.00;96934.34;5050394;28;24995;-74
2022/01/11 01:30:29;;;;;;;11.05;9.93;;;;;;;-1.03;100.00;96933.47;5050644;28;24442;-74
2022/01/11 01:32:57;;;;;;;15.55;13.38;;;;;;;-1.02;100.00;96934.31;5050200;28;24983;-74
2022/01/11 01:35:28;;;;;;;14.98;12.68;;;;;;;-0.87;100.00;96941.09;5050557;28;24433;-74
2022/01/11 01:37:54;;;;;;;17.77;14.63;;;;;;;-0.82;100.00;96937.69;5050492;28;24423;-74
2022/01/11 01:40:21;;;;;;;17.45;15.30;;;;;;;-0.79;100.00;96937.69;5050413;28;24423;-74
2022/01/11 01:42:49;;;;;;;19.50;15.55;;;;;;;-0.91;100.00;96937.69;5050553;28;24494;-74
2022/01/11 01:45:16;;;;;;;17.48;13.90;;;;;;;-0.78;100.00;96941.97;5050405;28;24857;-74
2022/01/11 01:47:43;;;;;;;16.57;14.03;;;;;;;-0.74;100.00;96945.34;5049850;28;24488;-75
2022/01/11 01:50:12;;;;;;;20.42;14.52;;;;;;;-0.74;100.00;96947.91;5050526;28;24429;-74
2022/01/11 01:52:39;;;;;;;15.57;13.87;;;;;;;-0.85;100.00;96937.72;5050053;28;25046;-74
2022/01/11 01:55:07;;;;;;;19.35;14.82;;;;;;;-1.00;100.00;96940.25;5050188;28;24450;-74
2022/01/11 01:57:34;;;;;;;20.27;13.55;;;;;;;-1.07;100.00;96941.09;5050256;28;24426;-74
2022/01/11 02:00:07;;;;;;;14.35;12.30;;;;;;;-0.94;100.00;96936.84;5050027;28;24430;-75
2022/01/11 02:02:35;;;;;;;14.55;12.18;;;;;;;-0.84;100.00;96943.66;5050213;28;25016;-76
2022/01/11 02:05:02;;;;;;;13.75;11.65;;;;;;;-0.82;100.00;96942.78;5050265;28;24793;-76
2022/01/11 02:07:30;;;;;;;16.60;12.20;;;;;;;-0.73;100.00;96945.34;5049956;28;24419;-75
2022/01/11 02:09:56;;;;;;;15.07;11.77;;;;;;;-0.39;100.00;96947.88;5049984;28;24972;-76
2022/01/11 02:12:24;;;;;;;17.33;11.70;;;;;;;-0.90;100.00;96939.41;5050238;28;24967;-75
2022/01/11 02:14:50;;;;;;;15.30;11.10;;;;;;;-1.00;100.00;96942.78;5049799;28;24420;-74
2022/01/11 02:17:17;;;;;;;13.25;10.77;;;;;;;-0.18;100.00;96941.91;5052777;28;24492;-74
2022/01/11 02:19:43;;;;;;;12.27;10.80;;;;;;;-0.40;100.00;96950.44;5053861;28;24510;-74
2022/01/11 02:22:11;;;;;;;12.48;10.85;;;;;;;-0.68;100.00;96955.50;5053954;28;24426;-75
2022/01/11 02:24:38;;;;;;;11.20;10.07;;;;;;;-0.77;100.00;96947.91;5053879;28;24423;-74
2022/01/11 02:27:05;;;;;;;13.85;10.40;;;;;;;-0.80;100.00;96955.53;5053224;28;24485;-74
2022/01/11 02:29:33;;;;;;;10.60;9.48;;;;;;;-0.78;100.00;96954.69;5053383;28;24415;-73
2022/01/11 02:31:59;;;;;;;10.55;9.45;;;;;;;-0.60;100.00;96953.81;5053314;28;24419;-73
2022/01/11 02:34:26;;;;;;;13.48;10.05;;;;;;;-0.66;100.00;96953.84;5053594;28;24431;-74
2022/01/11 02:36:52;;;;;;;16.85;10.13;;;;;;;-0.71;100.00;96944.50;5051493;28;24473;-74
2022/01/11 02:39:20;;;;;;;12.00;10.27;;;;;;;-0.78;100.00;96949.59;5051445;28;24477;-74
2022/01/11 02:41:52;;;;;;;13.43;9.68;;;;;;;-0.88;100.00;96952.97;5051634;28;24431;-73
2022/01/11 02:44:18;;;;;;;12.60;9.45;;;;;;;-0.83;100.00;96956.34;5051591;28;24434;-74
2022/01/11 02:46:45;;;;;;;15.00;9.07;;;;;;;-0.78;100.00;96954.69;5051170;28;24828;-74
2022/01/11 02:49:11;;;;;;;12.65;9.63;;;;;;;-0.77;100.00;96956.38;5051491;28;24427;-74
2022/01/11 02:51:38;;;;;;;14.77;9.85;;;;;;;-0.70;100.00;96961.44;5050542;28;24430;-75
2022/01/11 02:54:05;;;;;;;11.60;10.40;;;;;;;-0.75;100.00;96961.44;5018552;28;25093;-74
2022/01/11 02:56:34;;;;;;;15.93;11.63;;;;;;;-0.81;100.00;96958.91;5052697;28;25000;-74
2022/01/11 02:59:01;;;;;;;13.37;10.97;;;;;;;-0.95;100.00;96960.59;5052905;28;24987;-74
2022/01/11 03:01:28;;;;;;;16.75;10.73;;;;;;;-0.99;100.00;96952.97;5053239;28;24789;-75
2022/01/11 03:03:55;;;;;;;16.10;11.88;;;;;;;-1.08;100.00;96954.63;5053100;28;24473;-74
2022/01/11 03:06:22;;;;;;;13.63;10.60;;;;;;;-1.09;100.00;96950.41;5052914;28;24446;-76
2022/01/11 03:08:49;;;;;;;17.00;10.55;;;;;;;-1.19;100.00;96946.97;5043659;28;24432;-76
2022/01/11 03:11:17;;;;;;;12.02;9.63;;;;;;;-1.17;100.00;96955.47;5052630;28;24437;-75
2022/01/11 03:13:45;;;;;;;12.00;10.00;;;;;;;-1.06;100.00;96951.25;5052975;28;24533;-75
2022/01/11 03:16:13;;;;;;;16.05;12.30;;;;;;;-1.08;100.00;96947.84;5038683;28;24443;-75
2022/01/11 03:18:40;;;;;;;16.50;13.25;;;;;;;-1.04;100.00;96951.25;5032617;28;24430;-75
2022/01/11 03:21:07;;;;;;;24.10;15.02;;;;;;;-1.05;100.00;96952.09;5032622;28;24427;-74
2022/01/11 03:23:33;;;;;;;22.17;17.70;;;;;;;-1.00;100.00;96947.88;5032424;28;24964;-74
2022/01/11 03:26:02;;;;;;;29.52;20.38;;;;;;;-0.96;100.00;96952.13;5032363;28;24490;-74
2022/01/11 03:28:28;;;;;;;29.40;22.27;;;;;;;-0.89;100.00;96952.94;5039646;28;24536;-74
2022/01/11 03:30:57;;;;;;;35.85;26.90;;;;;;;-0.92;100.00;96958.06;5050187;28;24516;-74
2022/01/11 03:33:23;;;;;;;32.40;24.77;;;;;;;-0.83;100.00;96955.50;5052053;28;24446;-74
2022/01/11 03:35:51;;;;;;;27.47;22.37;;;;;;;-0.80;100.00;96958.91;5051804;28;24423;-73
2022/01/11 03:38:18;;;;;;;27.27;19.55;;;;;;;-0.79;100.00;96963.13;5052392;28;24430;-73
2022/01/11 03:40:45;;;;;;;27.98;20.05;;;;;;;-0.74;100.00;96966.56;5052528;28;24419;-73
2022/01/11 03:43:11;;;;;;;27.40;20.52;;;;;;;-0.71;100.00;96965.69;5052537;28;24788;-74
2022/01/11 03:45:38;;;;;;;28.65;21.17;;;;;;;-0.77;100.00;96961.47;5052000;28;24423;-73
2022/01/11 03:48:08;;;;;;;28.35;19.95;;;;;;;-0.69;100.00;96969.09;5052227;28;24481;-73
2022/01/11 03:50:35;;;;;;;21.95;18.80;;;;;;;-0.76;100.00;96970.78;5051832;28;24967;-72
2022/01/11 03:53:09;;;;;;;24.38;18.38;;;;;;;-0.85;100.00;96967.41;5050172;28;24450;-74
2022/01/11 03:55:47;;;;;;;25.17;19.30;;;;;;;-0.79;100.00;96964.84;5049648;28;24431;-74
2022/01/11 03:58:15;;;;;;;20.50;17.15;;;;;;;-0.74;100.00;96968.25;5051446;28;24928;-74
2022/01/11 04:00:43;;;;;;;23.02;17.85;;;;;;;-0.78;100.00;96966.53;5047197;28;24485;-73
2022/01/11 04:03:11;;;;;;;26.48;17.88;;;;;;;-1.02;100.00;96962.28;5032080;28;24436;-74
2022/01/11 04:05:40;;;;;;;22.23;17.88;;;;;;;-0.88;100.00;96968.22;5046771;28;25019;-75
2022/01/11 04:08:07;;;;;;;27.38;16.70;;;;;;;-0.85;100.00;96968.25;5040473;28;24525;-74
2022/01/11 04:10:33;;;;;;;47.65;16.55;;;;;;;-0.99;100.00;96972.47;5031697;28;24828;-73
2022/01/11 04:13:00;;;;;;;128.63;15.93;;;;;;;-1.11;100.00;96974.94;5031568;28;24451;-73
2022/01/11 04:15:26;;;;;;;152.00;15.87;;;;;;;-1.18;100.00;96971.56;5031380;28;24502;-75
2022/01/11 04:17:53;;;;;;;81.75;14.10;;;;;;;-1.12;100.00;96969.03;5031602;28;24431;-73
2022/01/11 04:20:22;;;;;;;89.30;12.52;;;;;;;-1.11;100.00;96974.94;5031774;28;24498;-73
2022/01/11 04:22:48;;;;;;;54.73;12.30;;;;;;;-1.05;100.00;96973.28;5031689;28;24416;-73
2022/01/11 04:25:15;;;;;;;48.40;13.80;;;;;;;-0.95;100.00;96979.25;5031354;28;24953;-73
2022/01/11 04:27:42;;;;;;;24.77;11.68;;;;;;;-0.91;100.00;96980.09;5019445;28;24448;-74
2022/01/11 04:30:09;;;;;;;44.83;13.23;;;;;;;-0.88;100.00;96980.09;5022367;28;24431;-73
2022/01/11 04:32:36;;;;;;;48.33;14.35;;;;;;;-0.94;100.00;96986.00;5031141;28;24592;-73
2022/01/11 04:35:03;;;;;;;46.35;14.73;;;;;;;-1.03;100.00;96981.78;5031351;28;24427;-73
2022/01/11 04:37:31;;;;;;;29.73;14.38;;;;;;;-1.16;100.00;96984.28;5031276;28;24431;-72
2022/01/11 04:39:57;;;;;;;17.70;12.57;;;;;;;-1.27;100.00;96982.53;5030623;28;24419;-73
2022/01/11 04:42:24;;;;;;;18.65;12.25;;;;;;;-1.27;100.00;96985.09;5031380;28;24435;-73
2022/01/11 04:44:51;;;;;;;21.00;12.52;;;;;;;-1.16;100.00;96977.50;5031143;28;24420;-73
2022/01/11 04:47:18;;;;;;;37.70;15.45;;;;;;;-1.28;100.00;96980.84;5030650;28;24794;-73
2022/01/11 04:49:44;;;;;;;18.63;13.60;;;;;;;-1.12;100.00;96989.34;5031140;28;24474;-73
2022/01/11 04:52:11;;;;;;;19.13;12.13;;;;;;;-0.85;100.00;96986.03;5030939;28;24419;-72
2022/01/11 04:54:40;;;;;;;15.73;10.60;;;;;;;-0.95;100.00;96997.03;5030784;28;25107;-72
2022/01/11 04:57:07;;;;;;;27.90;13.35;;;;;;;-0.99;100.00;96997.88;5030721;28;24435;-73
2022/01/11 04:59:34;;;;;;;17.35;12.52;;;;;;;-0.96;100.00;97002.97;5030577;28;25006;-74
2022/01/11 05:02:00;;;;;;;22.33;12.15;;;;;;;-0.89;100.00;97003.81;5030904;28;24423;-75
2022/01/11 05:04:26;;;;;;;20.48;11.77;;;;;;;-0.87;100.00;96997.91;5030845;28;24427;-74
2022/01/11 05:06:55;;;;;;;19.85;12.25;;;;;;;-1.07;100.00;97004.66;5030405;28;24478;-74
2022/01/11 05:09:21;;;;;;;16.40;10.95;;;;;;;-1.14;100.00;96998.69;5036536;28;24523;-74
2022/01/11 05:11:49;;;;;;;16.38;12.30;;;;;;;-1.07;100.00;96997.88;5050318;28;24457;-74
2022/01/11 05:14:16;;;;;;;22.33;12.88;;;;;;;-0.90;100.00;97005.50;5050805;28;24454;-74
2022/01/11 05:16:42;;;;;;;16.15;11.40;;;;;;;-0.85;100.00;97011.47;5050318;28;24423;-75
2022/01/11 05:19:12;;;;;;;17.90;11.47;;;;;;;-0.82;100.00;97006.38;5050547;28;24797;-75
2022/01/11 05:21:39;;;;;;;17.55;11.43;;;;;;;-0.75;100.00;97010.63;5050477;28;24415;-74
2022/01/11 05:24:06;;;;;;;20.90;13.53;;;;;;;-0.62;100.00;97013.19;5050531;28;24450;-73
2022/01/11 05:26:33;;;;;;;21.73;12.43;;;;;;;-0.80;100.00;97014.03;5050319;28;24422;-74
2022/01/11 05:29:01;;;;;;;38.38;15.38;;;;;;;-0.92;100.00;97008.91;5050410;28;24490;-73
2022/01/11 05:31:27;;;;;;;89.93;17.80;;;;;;;-0.99;100.00;97008.91;5050296;28;24434;-73
2022/01/11 05:33:54;;;;;;;86.68;17.15;;;;;;;-1.02;100.00;97015.66;5050136;28;24443;-74
2022/01/11 05:36:20;;;;;;;66.60;17.50;;;;;;;-1.02;100.00;97013.13;5049829;28;24426;-73
2022/01/11 05:38:47;;;;;;;28.45;15.48;;;;;;;-0.97;100.00;97013.97;5049984;28;24987;-74
2022/01/11 05:41:13;;;;;;;47.03;14.73;;;;;;;-0.94;100.00;97018.22;5050383;28;24419;-73
2022/01/11 05:43:40;;;;;;;27.90;15.02;;;;;;;-0.90;100.00;97015.69;5050542;28;24422;-73
2022/01/11 05:46:08;;;;;;;31.38;15.07;;;;;;;-0.78;100.00;97028.44;5050053;28;24808;-73
2022/01/11 05:48:34;;;;;;;19.80;15.40;;;;;;;-0.74;100.00;97022.53;5050476;28;24427;-75
2022/01/11 05:51:01;;;;;;;16.80;14.02;;;;;;;-0.72;100.00;97030.13;5052854;28;24951;-73
2022/01/11 05:53:27;;;;;;;19.55;15.63;;;;;;;-0.65;100.00;97031.84;5054446;28;24458;-73
2022/01/11 05:55:54;;;;;;;22.65;16.90;;;;;;;-0.61;100.00;97032.69;5051755;28;24438;-75
2022/01/11 05:58:20;;;;;;;20.27;15.80;;;;;;;-0.66;100.00;97042.88;5044517;28;24485;-75
2022/01/11 06:00:47;;;;;;;18.33;13.07;;;;;;;-0.77;100.00;97042.84;5042499;28;25023;-75
2022/01/11 06:03:15;;;;;;;16.85;11.63;;;;;;;-0.79;100.00;97044.53;5035603;28;24428;-74
2022/01/11 06:05:41;;;;;;;16.65;12.02;;;;;;;-0.77;100.00;97050.50;5033600;28;24424;-75
2022/01/11 06:08:08;;;;;;;13.10;10.95;;;;;;;-0.66;100.00;97045.44;5033690;28;24829;-75
2022/01/11 06:10:34;;;;;;;23.80;11.35;;;;;;;-0.51;100.00;97054.78;5033968;28;24451;-75
2022/01/11 06:13:01;;;;;;;15.80;11.23;;;;;;;-0.53;100.00;97056.47;5033918;28;24408;-73
2022/01/11 06:15:30;;;;;;;20.55;12.23;;;;;;;-0.49;100.00;97056.44;5033546;28;24424;-73
2022/01/11 06:17:57;;;;;;;18.67;12.13;;;;;;;-0.43;100.00;97052.25;5033880;28;24799;-74
2022/01/11 06:20:25;;;;;;;23.38;13.00;;;;;;;-0.40;100.00;97059.88;5034249;28;24440;-74
2022/01/11 06:22:53;;;;;;;20.52;12.63;;;;;;;-0.42;100.00;97059.84;5033404;28;24415;-74
2022/01/11 06:25:19;;;;;;;17.48;12.40;;;;;;;-0.46;100.00;97059.88;5033602;28;24474;-74
2022/01/11 06:27:45;;;;;;;16.85;11.50;;;;;;;-0.43;100.00;97060.72;5033335;28;24439;-73
2022/01/11 06:30:14;;;;;;;20.25;12.52;;;;;;;-0.45;100.00;97061.56;5033773;28;24470;-74
2022/01/11 06:32:43;;;;;;;18.58;11.85;;;;;;;-0.38;100.00;97068.34;5033440;28;24519;-73
2022/01/11 06:35:11;;;;;;;19.15;12.02;;;;;;;-0.47;100.00;97069.19;5032949;28;24476;-75
2022/01/11 06:37:39;;;;;;;18.08;12.75;;;;;;;-0.62;100.00;97071.72;5033027;28;24837;-72
2022/01/11 06:40:08;;;;;;;18.45;12.43;;;;;;;-0.60;100.00;97080.19;5032757;28;25100;-73
2022/01/11 06:42:35;;;;;;;16.67;12.00;;;;;;;-0.53;100.00;97077.66;5033182;28;24490;-74
2022/01/11 06:45:01;;;;;;;16.13;10.93;;;;;;;-0.52;100.00;97068.31;5033068;28;24411;-72
2022/01/11 06:47:28;;;;;;;19.60;11.20;;;;;;;-0.52;100.00;97073.41;5030156;28;24440;-72
2022/01/11 06:49:54;;;;;;;22.50;11.63;;;;;;;-0.55;100.00;97078.53;5031105;28;24434;-72
2022/01/11 06:52:21;;;;;;;14.35;10.75;;;;;;;-0.57;100.00;97080.19;5028849;28;24440;-73
2022/01/11 06:54:48;;;;;;;16.10;10.52;;;;;;;-0.52;100.00;97083.59;5020957;28;24460;-72
2022/01/11 06:57:15;;;;;;;17.70;11.75;;;;;;;-0.54;100.00;97093.78;5032308;28;24841;-72
2022/01/11 06:59:41;;;;;;;19.45;12.48;;;;;;;-0.56;100.00;97090.38;5031630;28;24968;-73
2022/01/11 07:02:08;;;;;;;15.38;12.38;;;;;;;-0.53;100.00;97090.38;5031805;28;24999;-73
2022/01/11 07:04:37;;;;;;;18.85;12.20;;;;;;;-0.45;100.00;97095.47;5020485;28;24499;-74
2022/01/11 07:07:04;;;;;;;18.75;13.07;;;;;;;-0.48;100.00;97092.97;5032780;28;24446;-73
2022/01/11 07:09:30;;;;;;;16.42;12.60;;;;;;;-0.45;100.00;97095.47;5036767;28;24447;-73
2022/01/11 07:11:58;;;;;;;15.88;12.98;;;;;;;-0.39;100.00;97098.06;5031401;28;24444;-73
2022/01/11 07:14:24;;;;;;;17.08;13.02;;;;;;;-0.37;100.00;97096.38;5032843;28;24459;-73
2022/01/11 07:16:51;;;;;;;16.75;12.30;;;;;;;-0.32;100.00;97101.47;5015714;28;24442;-73
2022/01/11 07:19:18;;;;;;;15.50;12.82;;;;;;;-0.31;100.00;97096.34;5032850;28;24423;-73
2022/01/11 07:21:45;;;;;;;16.10;13.00;;;;;;;-0.30;100.00;97090.44;5029533;28;24417;-72
2022/01/11 07:24:12;;;;;;;16.08;12.30;;;;;;;-0.27;100.00;97105.69;5033460;28;24442;-71
2022/01/11 07:26:39;;;;;;;15.77;11.87;;;;;;;-0.27;100.00;97100.59;5040242;28;24581;-73
2022/01/11 07:29:07;;;;;;;15.43;12.32;;;;;;;-0.21;100.00;97106.56;5029628;28;24412;-73
2022/01/11 07:31:33;;;;;;;14.25;11.55;;;;;;;-0.23;100.00;97109.09;5018618;28;24432;-73
2022/01/11 07:34:00;;;;;;;16.95;13.15;;;;;;;-0.20;100.00;97111.66;5031253;28;24985;-73
2022/01/11 07:36:26;;;;;;;17.63;12.43;;;;;;;-0.20;100.00;97114.19;5031808;28;24494;-73
2022/01/11 07:38:53;;;;;;;16.08;12.77;;;;;;;-0.19;100.00;97110.78;5031009;28;25410;-73
2022/01/11 07:41:19;;;;;;;19.67;13.52;;;;;;;-0.14;100.00;97121.84;5032228;28;24833;-73
2022/01/11 07:43:46;;;;;;;19.75;14.20;;;;;;;-0.18;100.00;97121.84;5031207;28;24427;-73
2022/01/11 07:46:14;;;;;;;18.30;14.75;;;;;;;-0.13;100.00;97122.69;5029931;28;24510;-73
2022/01/11 07:48:40;;;;;;;28.23;19.95;;;;;;;0.06;100.00;97129.47;5036689;28;24439;-73
2022/01/11 07:51:07;;;;;;;25.25;18.88;;;;;;;0.07;100.00;97131.19;5043294;28;24434;-73
2022/01/11 07:53:33;;;;;;;22.33;18.48;;;;;;;0.05;100.00;97132.88;5038981;28;24443;-73
2022/01/11 07:56:00;;;;;;;21.73;18.98;;;;;;;0.03;100.00;97138.81;5030861;28;24432;-74
2022/01/11 07:58:26;;;;;;;35.95;20.08;;;;;;;-0.09;100.00;97142.22;5031426;28;24420;-74
2022/01/11 08:00:53;;;;;;;25.05;18.25;;;;;;;-0.04;100.00;97137.97;5014494;28;24444;-74
2022/01/11 08:03:20;;;;;;;21.42;18.42;;;;;;;-0.10;100.00;97137.97;5014233;28;24445;-74
2022/01/11 08:05:47;;;;;;;21.30;18.95;;;;;;;-0.12;100.00;97134.56;5031416;28;24434;-72
2022/01/11 08:08:14;;;;;;;21.70;18.38;;;;;;;-0.08;100.00;97141.34;5025222;28;24443;-73
2022/01/11 08:10:40;;;;;;;22.90;18.95;;;;;;;-0.06;100.00;97148.16;5011844;28;24415;-74
2022/01/11 08:13:09;;;;;;;19.80;15.60;;;;;;;0.04;100.00;97145.59;5012098;28;24431;-73
2022/01/11 08:15:37;;;;;;;19.30;16.63;;;;;;;-0.03;100.00;97147.31;5030486;28;24467;-73
2022/01/11 08:18:04;;;;;;;21.70;18.63;;;;;;;-0.07;100.00;97146.47;5030983;28;24535;-74
2022/01/11 08:20:32;;;;;;;19.98;17.80;;;;;;;0.01;100.00;97154.13;5031567;28;24466;-73
2022/01/11 08:22:58;;;;;;;20.27;18.17;;;;;;;0.01;100.00;97159.22;5030291;28;24423;-74
2022/01/11 08:25:25;;;;;;;22.15;18.52;;;;;;;-0.08;100.00;97156.63;5030991;28;24428;-74
2022/01/11 08:27:52;;;;;;;27.25;18.42;;;;;;;-0.09;100.00;97165.97;5031001;28;24447;-74
2022/01/11 08:30:19;;;;;;;20.02;16.60;;;;;;;-0.10;100.00;97161.75;5018914;28;24444;-73
2022/01/11 08:32:45;;;;;;;21.52;16.83;;;;;;;-0.05;100.00;97162.59;5011604;28;24493;-74
2022/01/11 08:35:12;;;;;;;21.85;17.20;;;;;;;-0.03;100.00;97163.44;5028946;28;25074;-73
2022/01/11 08:37:40;;;;;;;23.52;19.10;;;;;;;-0.01;100.00;97166.00;5022753;28;24439;-73
2022/01/11 08:40:08;;;;;;;21.45;17.92;;;;;;;-0.02;100.00;97164.28;5011877;28;24416;-74
2022/01/11 08:42:34;;;;;;;20.35;17.60;;;;;;;0.03;100.00;97165.13;5011933;28;24425;-73
2022/01/11 08:45:01;;;;;;;19.75;17.25;;;;;;;0.10;100.00;97161.75;5020059;28;24431;-74
2022/01/11 08:47:30;;;;;;;30.75;18.33;;;;;;;0.08;100.00;97172.81;5026912;28;25166;-73
2022/01/11 08:49:57;;;;;;;25.58;19.48;;;;;;;0.27;100.00;97174.50;5012076;28;24865;-73
2022/01/11 08:52:23;;;;;;;23.00;18.40;;;;;;;0.23;100.00;97171.09;5030914;28;24945;-73
2022/01/11 08:54:52;;;;;;;24.33;18.50;;;;;;;0.23;100.00;97171.09;5018470;28;24448;-73
2022/01/11 08:57:19;;;;;;;26.45;18.00;;;;;;;0.28;100.00;97172.81;5014302;28;24854;-73
2022/01/11 08:59:46;;;;;;;19.27;15.55;;;;;;;0.41;100.00;97170.25;5018879;28;24526;-73
2022/01/11 09:02:13;;;;;;;22.60;18.17;;;;;;;0.32;100.00;97183.00;5030887;28;24510;-74
2022/01/11 09:04:40;;;;;;;25.23;19.98;;;;;;;0.42;100.00;97181.31;5030221;28;24435;-73
2022/01/11 09:07:07;;;;;;;21.77;19.35;;;;;;;0.58;100.00;97179.59;5030951;28;24432;-73
2022/01/11 09:09:33;;;;;;;24.00;19.35;;;;;;;0.75;100.00;97185.53;5030204;28;24563;-73
2022/01/11 09:12:03;;;;;;;21.35;19.05;;;;;;;0.82;100.00;97189.75;5030723;28;24435;-73
2022/01/11 09:14:30;;;;;;;21.93;19.67;;;;;;;0.72;100.00;97188.91;5029944;28;24622;-73
2022/01/11 09:16:57;;;;;;;21.65;17.67;;;;;;;0.89;100.00;97188.03;5029952;28;24444;-73
2022/01/11 09:19:25;;;;;;;23.15;18.08;;;;;;;1.04;100.00;97185.47;5030582;28;24478;-74
2022/01/11 09:21:51;;;;;;;21.88;18.85;;;;;;;1.02;100.00;97197.34;5030353;28;24420;-74
2022/01/11 09:24:19;;;;;;;30.98;20.35;;;;;;;1.24;100.00;97187.09;5029500;28;24435;-74
2022/01/11 09:26:47;;;;;;;26.75;20.20;;;;;;;0.97;100.00;97193.97;5030388;28;24828;-73
2022/01/11 09:29:15;;;;;;;27.92;20.17;;;;;;;0.99;100.00;97194.81;5030215;28;24985;-73
2022/01/11 09:31:43;;;;;;;28.92;20.70;;;;;;;1.11;100.00;97193.91;5030647;28;24436;-74
2022/01/11 09:34:09;;;;;;;24.25;20.95;;;;;;;1.28;100.00;97176.88;5030165;28;24432;-74
2022/01/11 09:36:35;;;;;;;23.63;20.52;;;;;;;1.18;100.00;97187.94;5029871;28;24427;-73
2022/01/11 09:39:02;;;;;;;25.23;20.60;;;;;;;1.29;100.00;97186.22;5030073;28;24435;-73
2022/01/11 09:41:29;;;;;;;24.27;19.73;;;;;;;1.20;100.00;97189.66;5030290;28;24972;-73
2022/01/11 09:43:57;;;;;;;23.15;19.13;;;;;;;1.18;100.00;97191.34;5029845;28;24478;-73
2022/01/11 09:46:24;;;;;;;23.43;20.30;;;;;;;1.47;100.00;97190.41;5029860;28;24447;-73
2022/01/11 09:48:51;;;;;;;23.40;19.38;;;;;;;1.30;100.00;97194.72;5010405;28;24431;-73
2022/01/11 09:51:18;;;;;;;24.35;19.85;;;;;;;1.23;100.00;97195.63;5010566;28;24984;-73
2022/01/11 09:53:46;;;;;;;22.13;19.42;;;;;;;1.21;100.00;97201.56;5021075;28;24450;-73
2022/01/11 09:56:13;;;;;;;21.10;18.77;;;;;;;1.18;100.00;97204.09;5029609;28;25011;-73
2022/01/11 09:58:40;;;;;;;25.25;19.83;;;;;;;1.16;100.00;97199.88;5030285;28;24840;-73
2022/01/11 10:01:06;;;;;;;22.73;19.20;;;;;;;1.07;100.00;97205.84;5030029;28;24447;-73
2022/01/11 10:03:56;;;;;;;25.58;19.88;;;;;;;1.17;100.00;97215.19;5029331;28;24847;-73
2022/01/11 10:06:24;;;;;;;25.50;19.45;;;;;;;1.28;100.00;97214.31;5029704;28;24795;-73
2022/01/11 10:08:51;;;;;;;22.70;18.57;;;;;;;1.24;100.00;97212.63;5029747;28;24432;-74
2022/01/11 10:11:35;;;;;;;22.70;19.50;;;;;;;1.42;100.00;97210.84;5030331;28;24420;-73
2022/01/11 10:14:27;;;;;;;18.92;16.92;;;;;;;1.38;100.00;97215.97;5029365;28;24432;-74
2022/01/11 10:17:17;;;;;;;21.50;18.20;;;;;;;1.43;100.00;97209.13;5029664;28;24535;-74
2022/01/11 10:19:47;;;;;;;28.35;18.00;;;;;;;1.50;100.00;97210.81;5025561;28;24541;-73
2022/01/11 10:22:16;;;;;;;23.17;17.55;;;;;;;1.67;100.00;97209.06;5029515;28;24431;-73
2022/01/11 10:24:44;;;;;;;21.23;16.88;;;;;;;1.60;100.00;97204.81;5029493;28;24551;-73
2022/01/11 10:27:15;;;;;;;22.00;16.42;;;;;;;1.54;100.00;97199.72;5029814;28;24439;-73
2022/01/11 10:29:44;;;;;;;20.38;16.02;;;;;;;1.63;100.00;97202.25;5029948;28;24430;-73
2022/01/11 10:32:17;;;;;;;25.63;18.05;;;;;;;1.74;100.00;97202.19;5030157;28;24427;-73
2022/01/11 10:34:48;;;;;;;20.95;17.98;;;;;;;1.46;100.00;97204.03;5029088;28;24498;-73
2022/01/11 10:37:17;;;;;;;19.95;17.35;;;;;;;1.78;100.00;97198.78;5022099;28;24442;-73
2022/01/11 10:39:45;;;;;;;21.73;16.75;;;;;;;1.62;100.00;97198.00;5033571;28;24482;-74
2022/01/11 10:42:26;;;;;;;19.33;16.20;;;;;;;1.64;100.00;97201.41;5033501;28;24477;-73
2022/01/11 10:44:55;;;;;;;23.17;16.27;;;;;;;1.67;100.00;97195.44;5032574;28;24857;-73
2022/01/11 10:47:25;;;;;;;19.05;16.55;;;;;;;1.71;100.00;97204.78;5032377;28;24428;-73
2022/01/11 10:49:56;;;;;;;19.30;16.27;;;;;;;2.00;100.00;97196.91;5033463;28;24825;-73
2022/01/11 10:52:25;;;;;;;18.80;14.23;;;;;;;2.39;100.00;97206.03;5033233;28;24426;-73
2022/01/11 10:54:53;;;;;;;19.52;12.52;;;;;;;2.52;100.00;97211.91;5032084;28;24463;-73
2022/01/11 10:57:23;;;;;;;18.10;16.17;;;;;;;2.54;100.00;97206.78;5032682;28;24802;-73
2022/01/11 11:00:17;;;;;;;34.13;16.92;;;;;;;2.46;100.00;97201.72;5032406;28;24435;-73
2022/01/11 11:02:49;;;;;;;20.15;14.02;;;;;;;2.59;100.00;97210.13;5033222;28;24473;-73
2022/01/11 11:05:20;;;;;;;15.18;12.50;;;;;;;2.49;100.00;97201.72;5032371;28;24424;-73
2022/01/11 11:07:57;;;;;;;16.13;13.65;;;;;;;2.49;100.00;97200.88;5032586;28;24430;-73
2022/01/11 11:10:33;;;;;;;16.33;12.98;;;;;;;2.47;100.00;97195.75;5032560;28;24439;-73
2022/01/11 11:13:01;;;;;;;18.90;13.20;;;;;;;2.39;100.00;97194.97;5032946;28;24415;-73
2022/01/11 11:15:30;;;;;;;14.57;13.02;;;;;;;2.59;100.00;97193.06;5031499;28;24467;-73
2022/01/11 11:17:56;;;;;;;16.17;12.80;;;;;;;2.63;100.00;97194.78;5032250;28;24806;-74